createdAt,value
2022-08-07T00:01:43.853Z,3.63
2022-08-07T00:04:11.281Z,3.92
2022-08-07T00:06:51.868Z,3.22
2022-08-07T00:09:26.654Z,3.10
2022-08-07T00:12:04.576Z,5.53
2022-08-07T00:14:34.714Z,3.85
2022-08-07T00:17:06.714Z,3.95
2022-08-07T00:20:00.240Z,3.40
2022-08-07T00:22:35.305Z,4.10
2022-08-07T00:25:16.476Z,4.30
2022-08-07T00:27:52.501Z,3.92
2022-08-07T00:30:28.044Z,3.80
2022-08-07T00:32:59.565Z,3.75
2022-08-07T00:35:30.419Z,4.40
2022-08-07T00:38:01.070Z,4.72
2022-08-07T00:40:40.000Z,4.47
2022-08-07T00:44:01.402Z,5.50
2022-08-07T00:46:02.598Z,3.67
2022-08-07T00:48:33.158Z,3.50
2022-08-07T00:51:03.910Z,3.95
2022-08-07T00:53:39.101Z,3.88
2022-08-07T00:56:21.093Z,5.20
2022-08-07T00:58:51.345Z,3.40
2022-08-07T01:01:21.562Z,3.50
2022-08-07T01:03:56.283Z,3.22
2022-08-07T01:06:30.864Z,4.18
2022-08-07T01:09:02.814Z,3.25
2022-08-07T01:12:09.942Z,3.42
2022-08-07T01:14:28.788Z,3.28
2022-08-07T01:17:04.074Z,2.90
2022-08-07T01:19:38.514Z,3.15
2022-08-07T01:22:16.144Z,4.00
2022-08-07T01:24:53.393Z,4.10
2022-08-07T01:27:23.717Z,3.83
2022-08-07T01:30:03.830Z,3.30
2022-08-07T01:32:34.067Z,3.35
2022-08-07T01:35:04.752Z,2.97
2022-08-07T01:37:35.580Z,3.05
2022-08-07T01:40:15.451Z,6.45
2022-08-07T01:42:57.467Z,2.50
2022-08-07T01:45:36.914Z,1.88
2022-08-07T01:48:29.783Z,2.97
2022-08-07T01:51:24.699Z,2.50
2022-08-07T01:54:09.340Z,2.15
2022-08-07T01:56:57.195Z,2.03
2022-08-07T01:59:32.753Z,2.00
2022-08-07T02:02:10.562Z,1.95
2022-08-07T02:04:52.513Z,2.13
2022-08-07T02:07:35.765Z,2.25
2022-08-07T02:10:07.667Z,1.92
2022-08-07T02:12:46.395Z,2.17
2022-08-07T02:15:27.088Z,2.40
2022-08-07T02:17:59.934Z,2.20
2022-08-07T02:20:30.162Z,2.55
2022-08-07T02:23:02.926Z,2.33
2022-08-07T02:26:31.227Z,2.60
2022-08-07T02:28:25.453Z,2.53
2022-08-07T02:31:28.589Z,2.42
2022-08-07T02:34:01.795Z,2.25
2022-08-07T02:36:39.184Z,2.97
2022-08-07T02:39:17.030Z,3.70
2022-08-07T02:42:10.346Z,3.80
2022-08-07T02:44:48.254Z,3.97
2022-08-07T02:47:48.130Z,4.10
2022-08-07T02:50:23.630Z,3.45
2022-08-07T02:53:10.750Z,4.05
2022-08-07T02:56:03.537Z,3.65
2022-08-07T02:58:37.092Z,2.50
2022-08-07T03:01:16.027Z,2.65
2022-08-07T03:03:50.915Z,1.98
2022-08-07T03:09:04.961Z,2.13
2022-08-07T03:11:38.645Z,2.72
2022-08-07T03:14:12.579Z,1.85
2022-08-07T03:16:44.163Z,2.15
2022-08-07T03:19:15.028Z,1.77
2022-08-07T03:21:45.598Z,2.17
2022-08-07T03:24:25.943Z,1.52
2022-08-07T03:27:01.139Z,1.20
2022-08-07T03:29:51.237Z,1.75
2022-08-07T03:32:33.506Z,1.52
2022-08-07T03:35:18.328Z,2.28
2022-08-07T03:37:53.542Z,4.38
2022-08-07T03:40:31.027Z,6.72
2022-08-07T03:43:14.366Z,3.50
2022-08-07T03:45:53.411Z,3.42
2022-08-07T03:48:29.777Z,2.85
2022-08-07T03:51:01.637Z,2.00
2022-08-07T03:54:33.331Z,2.20
2022-08-07T03:56:32.546Z,2.20
2022-08-07T03:59:09.882Z,2.25
2022-08-07T04:01:46.457Z,3.85
2022-08-07T04:04:20.361Z,2.58
2022-08-07T04:06:55.213Z,2.67
2022-08-07T04:09:44.594Z,2.97
2022-08-07T04:12:26.250Z,2.05
2022-08-07T04:15:00.218Z,2.08
2022-08-07T04:18:31.056Z,2.22
2022-08-07T04:20:25.309Z,1.05
2022-08-07T04:23:01.400Z,1.23
2022-08-07T04:25:40.859Z,0.82
2022-08-07T04:28:14.029Z,1.10
2022-08-07T04:30:55.361Z,1.15
2022-08-07T04:33:31.226Z,0.88
2022-08-07T04:36:06.857Z,0.95
2022-08-07T04:38:38.061Z,0.80
2022-08-07T04:41:08.849Z,1.10
2022-08-07T04:44:10.151Z,0.93
2022-08-07T04:47:07.712Z,0.60
2022-08-07T04:50:03.565Z,0.85
2022-08-07T04:52:50.929Z,0.77
2022-08-07T04:58:15.424Z,1.00
2022-08-07T05:01:50.583Z,0.90
2022-08-07T05:04:26.331Z,0.80
2022-08-07T05:07:20.641Z,1.20
2022-08-07T05:10:00.719Z,0.90
2022-08-07T05:12:37.509Z,1.00
2022-08-07T05:15:23.264Z,2.00
2022-08-07T05:18:08.533Z,0.80
2022-08-07T05:20:49.302Z,1.00
2022-08-07T05:23:29.942Z,1.45
2022-08-07T05:26:13.307Z,1.25
2022-08-07T05:28:53.021Z,1.80
2022-08-07T05:31:35.229Z,1.08
2022-08-07T05:34:12.807Z,1.20
2022-08-07T05:36:53.151Z,1.35
2022-08-07T05:40:13.850Z,1.15
2022-08-07T05:42:34.278Z,1.25
2022-08-07T05:45:14.343Z,1.55
2022-08-07T05:48:01.100Z,1.55
2022-08-07T05:50:35.628Z,1.38
2022-08-07T05:54:09.748Z,1.48
2022-08-07T05:56:03.311Z,1.42
2022-08-07T05:58:39.835Z,1.20
2022-08-07T06:01:14.437Z,1.20
2022-08-07T06:03:54.030Z,1.33
2022-08-07T06:06:38.847Z,1.40
2022-08-07T06:09:17.900Z,1.27
2022-08-07T06:11:50.897Z,1.75
2022-08-07T06:14:28.891Z,1.40
2022-08-07T06:17:07.079Z,1.40
2022-08-07T06:19:52.143Z,1.20
2022-08-07T06:22:38.899Z,1.75
2022-08-07T06:25:34.714Z,1.33
2022-08-07T06:28:06.637Z,2.53
2022-08-07T06:30:42.620Z,2.10
2022-08-07T06:33:22.543Z,1.70
2022-08-07T06:36:12.103Z,1.40
2022-08-07T06:38:58.496Z,1.48
2022-08-07T06:42:02.235Z,1.45
2022-08-07T06:45:19.088Z,1.52
2022-08-07T06:47:59.607Z,1.65
2022-08-07T06:50:38.254Z,1.40
2022-08-07T06:53:49.180Z,1.15
2022-08-07T06:56:07.583Z,1.17
2022-08-07T07:00:11.806Z,1.33
2022-08-07T07:01:48.844Z,2.42
2022-08-07T07:04:28.080Z,1.40
2022-08-07T07:07:10.842Z,1.30
2022-08-07T07:09:58.754Z,1.40
2022-08-07T07:12:33.791Z,1.10
2022-08-07T07:15:04.078Z,1.30
2022-08-07T07:17:52.234Z,1.50
2022-08-07T07:20:34.604Z,1.40
2022-08-07T07:24:08.908Z,1.80
2022-08-07T07:26:34.960Z,1.70
2022-08-07T07:29:56.988Z,2.10
2022-08-07T07:31:46.646Z,1.77
2022-08-07T07:34:19.282Z,1.65
2022-08-07T07:36:52.671Z,1.95
2022-08-07T07:39:25.645Z,1.90
2022-08-07T07:42:13.625Z,1.73
2022-08-07T07:44:49.549Z,1.65
2022-08-07T07:47:23.621Z,1.55
2022-08-07T07:50:31.332Z,1.52
2022-08-07T07:52:47.077Z,1.92
2022-08-07T07:55:17.341Z,1.80
2022-08-07T07:57:53.806Z,1.88
2022-08-07T08:00:29.971Z,1.50
2022-08-07T08:03:07.969Z,2.47
2022-08-07T08:05:54.495Z,1.77
2022-08-07T08:08:35.314Z,1.70
2022-08-07T08:11:17.967Z,2.35
2022-08-07T08:14:05.579Z,1.15
2022-08-07T08:16:38.540Z,1.50
2022-08-07T08:20:15.917Z,1.70
2022-08-07T08:22:20.442Z,1.40
2022-08-07T08:25:27.064Z,1.33
2022-08-07T08:28:37.837Z,1.10
2022-08-07T08:31:16.160Z,1.80
2022-08-07T08:33:55.458Z,0.98
2022-08-07T08:36:29.578Z,0.95
2022-08-07T08:39:02.813Z,1.00
2022-08-07T08:41:58.137Z,1.05
2022-08-07T08:44:41.222Z,1.85
2022-08-07T08:47:17.185Z,1.20
2022-08-07T08:50:02.971Z,1.00
2022-08-07T08:53:02.043Z,1.27
2022-08-07T08:55:55.238Z,1.10
2022-08-07T08:58:34.326Z,1.05
2022-08-07T09:01:14.816Z,1.17
2022-08-07T09:04:08.090Z,1.15
2022-08-07T09:06:42.665Z,1.33
2022-08-07T09:09:29.890Z,1.02
2022-08-07T09:12:30.174Z,1.00
2022-08-07T09:15:00.086Z,1.33
2022-08-07T09:17:58.888Z,0.73
2022-08-07T09:20:43.979Z,0.95
2022-08-07T09:24:32.504Z,1.33
2022-08-07T09:26:39.333Z,1.05
2022-08-07T09:30:03.805Z,1.05
2022-08-07T09:32:35.044Z,1.42
2022-08-07T09:36:02.952Z,1.40
2022-08-07T09:38:16.354Z,1.15
2022-08-07T09:40:53.457Z,1.50
2022-08-07T09:44:03.538Z,0.82
2022-08-07T09:47:25.246Z,0.82
2022-08-07T09:50:02.686Z,0.93
2022-08-07T09:52:34.436Z,1.00
2022-08-07T09:55:29.757Z,0.85
2022-08-07T09:58:32.473Z,1.15
2022-08-07T10:01:52.324Z,0.90
2022-08-07T10:04:39.343Z,1.35
2022-08-07T10:07:39.911Z,1.17
2022-08-07T10:10:24.170Z,0.77
2022-08-07T10:12:58.423Z,1.13
2022-08-07T10:15:37.879Z,1.15
2022-08-07T10:18:37.568Z,0.85
2022-08-07T10:22:12.554Z,1.02
2022-08-07T10:24:33.475Z,1.05
2022-08-07T10:27:46.588Z,1.13
2022-08-07T10:30:19.611Z,1.17
2022-08-07T10:32:52.292Z,2.67
2022-08-07T10:35:55.854Z,1.45
2022-08-07T10:38:35.922Z,1.10
2022-08-07T10:41:51.680Z,1.20
2022-08-07T10:44:08.494Z,1.17
2022-08-07T10:46:41.829Z,0.90
2022-08-07T10:49:49.832Z,1.00
2022-08-07T10:52:52.751Z,1.30
2022-08-07T10:55:37.921Z,1.20
2022-08-07T10:58:33.014Z,1.00
2022-08-07T11:01:15.327Z,1.55
2022-08-07T11:04:11.075Z,1.45
2022-08-07T11:06:52.093Z,1.23
2022-08-07T11:10:07.964Z,1.23
2022-08-07T11:12:38.769Z,1.10
2022-08-07T11:15:17.631Z,1.15
2022-08-07T11:18:12.485Z,1.20
2022-08-07T11:20:48.814Z,1.25
2022-08-07T11:23:30.848Z,1.05
2022-08-07T11:26:13.042Z,1.40
2022-08-07T11:28:53.497Z,1.10
2022-08-07T11:31:35.439Z,1.17
2022-08-07T11:34:24.790Z,1.30
2022-08-07T11:37:02.513Z,1.52
2022-08-07T11:39:39.758Z,1.85
2022-08-07T11:42:45.329Z,1.85
2022-08-07T11:45:36.496Z,1.10
2022-08-07T11:48:18.033Z,1.40
2022-08-07T11:51:00.001Z,1.35
2022-08-07T11:53:35.593Z,2.30
2022-08-07T11:56:29.875Z,1.60
2022-08-07T11:59:22.196Z,1.27
2022-08-07T12:02:30.437Z,1.48
2022-08-07T12:05:15.041Z,1.92
2022-08-07T12:08:00.539Z,1.50
2022-08-07T12:11:08.145Z,2.42
2022-08-07T12:14:09.763Z,2.60
2022-08-07T12:16:51.153Z,2.20
2022-08-07T12:19:35.405Z,1.85
2022-08-07T12:22:37.767Z,1.83
2022-08-07T12:26:05.699Z,2.55
2022-08-07T12:28:53.066Z,1.92
2022-08-07T12:31:52.404Z,1.65
2022-08-07T12:34:22.806Z,2.60
2022-08-07T12:36:56.728Z,2.20
2022-08-07T12:39:42.291Z,2.20
2022-08-07T12:42:15.648Z,2.80
2022-08-07T12:44:47.002Z,2.92
2022-08-07T12:47:30.678Z,2.83
2022-08-07T12:50:33.922Z,2.38
2022-08-07T12:53:17.686Z,2.90
2022-08-07T12:56:21.503Z,3.72
2022-08-07T12:58:53.199Z,3.25
2022-08-07T13:01:32.222Z,4.10
2022-08-07T13:04:09.772Z,4.13
2022-08-07T13:07:00.917Z,4.00
2022-08-07T13:10:19.400Z,3.28
2022-08-07T13:12:47.422Z,2.50
2022-08-07T13:15:29.425Z,2.10
2022-08-07T13:18:08.555Z,2.30
2022-08-07T13:20:45.040Z,2.88
2022-08-07T13:24:01.926Z,2.70
2022-08-07T13:26:16.003Z,5.03
2022-08-07T13:28:49.561Z,2.60
2022-08-07T13:31:23.868Z,2.50
2022-08-07T13:34:34.688Z,2.75
2022-08-07T13:37:01.838Z,2.72
2022-08-07T13:40:32.643Z,2.85
2022-08-07T13:42:33.317Z,2.53
2022-08-07T13:46:06.883Z,2.50
2022-08-07T13:48:07.851Z,2.50
2022-08-07T13:50:45.319Z,2.60
2022-08-07T13:53:35.932Z,2.00
2022-08-07T13:56:40.523Z,2.55
2022-08-07T13:59:16.950Z,2.47
2022-08-07T14:02:12.861Z,2.47
2022-08-07T14:04:50.344Z,2.72
2022-08-07T14:07:27.513Z,2.65
2022-08-07T14:10:02.433Z,2.22
2022-08-07T14:13:00.581Z,3.53
2022-08-07T14:15:31.731Z,3.88
2022-08-07T14:18:23.857Z,4.53
2022-08-07T14:20:57.934Z,3.42
2022-08-07T14:24:00.843Z,4.35
2022-08-07T14:26:29.944Z,3.60
2022-08-07T14:29:08.821Z,3.78
2022-08-07T14:31:57.721Z,3.50
2022-08-07T14:34:30.768Z,5.25
2022-08-07T14:37:04.403Z,3.63
2022-08-07T14:40:18.364Z,4.20
2022-08-07T14:42:32.483Z,3.67
2022-08-07T14:45:49.471Z,2.67
2022-08-07T14:48:22.348Z,2.42
2022-08-07T14:50:58.613Z,3.17
2022-08-07T14:56:30.606Z,2.70
2022-08-07T14:59:13.735Z,2.70
2022-08-07T15:02:04.825Z,2.28
2022-08-07T15:04:55.033Z,2.60
2022-08-07T15:07:25.742Z,2.90
2022-08-07T15:10:20.000Z,3.05
2022-08-07T15:13:12.260Z,3.60
2022-08-07T15:15:52.623Z,4.30
2022-08-07T15:18:33.995Z,3.88
2022-08-07T15:21:43.708Z,4.25
2022-08-07T15:25:13.162Z,3.67
2022-08-07T15:27:17.230Z,3.75
2022-08-07T15:30:06.581Z,4.95
2022-08-07T15:41:23.551Z,3.97
2022-08-07T15:44:21.398Z,3.83
2022-08-07T15:50:03.788Z,4.35
2022-08-07T15:52:37.728Z,4.32
2022-08-07T15:55:12.395Z,4.07
2022-08-07T15:57:48.504Z,5.70
2022-08-07T16:03:03.646Z,4.15
2022-08-07T16:05:33.737Z,4.53
2022-08-07T16:08:32.107Z,5.70
2022-08-07T16:11:27.126Z,4.40
2022-08-07T16:14:03.275Z,5.82
2022-08-07T16:16:48.850Z,3.78
2022-08-07T16:19:42.508Z,3.58
2022-08-07T16:22:33.408Z,2.22
2022-08-07T16:25:52.549Z,2.10
2022-08-07T16:30:07.783Z,3.47
2022-08-07T16:31:57.947Z,4.90
2022-08-07T16:34:28.875Z,2.92
2022-08-07T16:38:03.570Z,4.80
2022-08-07T16:40:30.844Z,2.95
2022-08-07T16:43:21.953Z,2.95
2022-08-07T16:46:47.136Z,3.22
2022-08-07T16:50:28.198Z,2.50
2022-08-07T16:52:50.603Z,2.42
2022-08-07T16:55:24.274Z,2.78
2022-08-07T16:58:03.991Z,4.35
2022-08-07T17:00:46.819Z,4.60
2022-08-07T17:03:57.767Z,4.40
2022-08-07T17:06:42.542Z,4.40
2022-08-07T17:10:06.790Z,4.45
2022-08-07T17:12:35.571Z,4.70
2022-08-07T17:15:09.648Z,3.33
2022-08-07T17:17:44.077Z,3.95
2022-08-07T17:20:40.973Z,3.85
2022-08-07T17:23:21.498Z,3.85
2022-08-07T17:26:06.369Z,3.88
2022-08-07T17:28:55.223Z,3.15
2022-08-07T17:31:44.099Z,3.30
2022-08-07T17:37:14.368Z,3.10
2022-08-07T17:40:30.716Z,3.35
2022-08-07T17:43:14.909Z,2.88
2022-08-07T17:46:09.851Z,2.80
2022-08-07T17:49:08.880Z,3.53
2022-08-07T17:52:00.605Z,2.70
2022-08-07T17:54:54.037Z,3.10
2022-08-07T17:57:56.105Z,2.90
2022-08-07T18:00:33.095Z,3.17
2022-08-07T18:03:18.576Z,4.13
2022-08-07T18:06:03.489Z,3.47
2022-08-07T18:09:00.516Z,2.92
2022-08-07T18:12:18.150Z,3.95
2022-08-07T18:14:25.280Z,3.45
2022-08-07T18:17:02.449Z,3.15
2022-08-07T18:21:08.707Z,3.20
2022-08-07T18:22:37.038Z,4.10
2022-08-07T18:25:24.173Z,3.67
2022-08-07T18:28:02.791Z,3.47
2022-08-07T18:30:36.662Z,3.45
2022-08-07T18:33:15.297Z,3.28
2022-08-07T18:36:05.874Z,3.42
2022-08-07T18:39:01.334Z,3.30
2022-08-07T18:41:47.689Z,3.00
2022-08-07T18:44:55.997Z,3.20
2022-08-07T18:47:44.659Z,2.88
2022-08-07T18:50:40.521Z,3.00
2022-08-07T18:53:19.035Z,2.63
2022-08-07T18:56:00.537Z,2.95
2022-08-07T18:58:40.526Z,2.50
2022-08-07T19:01:58.907Z,2.67
2022-08-07T19:04:01.941Z,2.70
2022-08-07T19:06:52.456Z,2.90
2022-08-07T19:09:57.857Z,2.55
2022-08-07T19:12:26.411Z,2.72
2022-08-07T19:16:03.623Z,2.47
2022-08-07T19:18:34.685Z,2.80
2022-08-07T19:21:13.940Z,2.50
2022-08-07T19:24:00.278Z,2.70
2022-08-07T19:27:16.901Z,2.28
2022-08-07T19:31:01.704Z,2.58
2022-08-07T19:32:25.939Z,2.45
2022-08-07T19:35:15.892Z,2.33
2022-08-07T19:37:56.918Z,2.10
2022-08-07T19:40:31.667Z,2.80
2022-08-07T19:43:03.782Z,2.20
2022-08-07T19:46:05.515Z,2.67
2022-08-07T19:48:27.190Z,2.30
2022-08-07T19:50:57.705Z,2.45
2022-08-07T19:54:32.248Z,2.50
2022-08-07T19:57:51.991Z,2.58
2022-08-07T19:59:39.870Z,2.60
2022-08-07T20:02:19.206Z,2.70
2022-08-07T20:05:00.254Z,2.53
2022-08-07T20:07:45.853Z,2.55
2022-08-07T20:10:37.291Z,2.15
2022-08-07T20:13:23.079Z,2.20
2022-08-07T20:15:57.921Z,2.40
2022-08-07T20:18:32.326Z,2.53
2022-08-07T20:21:22.101Z,2.65
2022-08-07T20:24:00.326Z,2.30
2022-08-07T20:26:45.104Z,2.30
2022-08-07T20:29:48.935Z,2.33
2022-08-07T20:32:23.083Z,3.17
2022-08-07T20:34:56.613Z,2.53
2022-08-07T20:37:33.938Z,2.40
2022-08-07T20:40:31.234Z,2.28
2022-08-07T20:42:59.907Z,2.85
2022-08-07T20:46:28.787Z,2.03
2022-08-07T20:48:29.970Z,2.03
2022-08-07T20:51:09.702Z,1.70
2022-08-07T20:54:04.617Z,2.25
2022-08-07T20:56:32.408Z,1.95
2022-08-07T20:59:05.522Z,2.22
2022-08-07T21:01:45.605Z,2.47
2022-08-07T21:04:28.325Z,1.80
2022-08-07T21:07:03.983Z,2.20
2022-08-07T21:09:52.844Z,2.05
2022-08-07T21:12:30.827Z,2.03
2022-08-07T21:15:02.441Z,2.05
2022-08-07T21:18:09.087Z,2.50
2022-08-07T21:20:29.820Z,2.47
2022-08-07T21:23:09.855Z,2.00
2022-08-07T21:25:56.605Z,2.50
2022-08-07T21:28:48.825Z,2.90
2022-08-07T21:31:49.740Z,2.08
2022-08-07T21:34:26.576Z,2.03
2022-08-07T21:37:02.812Z,2.22
2022-08-07T21:39:51.738Z,2.60
2022-08-07T21:42:47.996Z,2.22
2022-08-07T21:46:08.438Z,2.05
2022-08-07T21:48:27.919Z,1.70
2022-08-07T21:51:00.185Z,2.28
2022-08-07T21:53:37.060Z,2.30
2022-08-07T21:56:37.787Z,2.25
2022-08-07T22:00:05.007Z,2.00
2022-08-07T22:02:36.715Z,2.05
2022-08-07T22:05:06.952Z,1.50
2022-08-07T22:07:58.626Z,2.55
2022-08-07T22:10:35.466Z,1.80
2022-08-07T22:13:09.389Z,2.08
2022-08-07T22:16:40.948Z,2.20
2022-08-07T22:19:00.825Z,2.60
2022-08-07T22:22:01.887Z,2.13
2022-08-07T22:27:11.397Z,2.58
2022-08-07T22:29:48.398Z,2.75
2022-08-07T22:32:29.072Z,2.42
2022-08-07T22:35:03.806Z,2.22
2022-08-07T22:38:02.829Z,2.58
2022-08-07T22:40:35.080Z,2.53
2022-08-07T22:43:14.544Z,2.78
2022-08-07T22:46:40.648Z,2.40
2022-08-07T22:48:55.539Z,2.60
2022-08-07T22:51:52.204Z,2.17
2022-08-07T22:54:40.730Z,2.58
2022-08-07T22:57:26.033Z,2.80
2022-08-07T23:00:03.330Z,3.13
2022-08-07T23:02:43.027Z,2.80
2022-08-07T23:06:08.903Z,2.22
2022-08-07T23:08:24.082Z,3.00
2022-08-07T23:11:00.846Z,2.88
2022-08-07T23:14:15.484Z,2.85
2022-08-07T23:16:55.430Z,3.00
2022-08-07T23:19:51.392Z,2.42
2022-08-07T23:22:25.487Z,2.25
2022-08-07T23:25:14.118Z,2.20
2022-08-07T23:27:48.197Z,1.92
2022-08-07T23:31:06.686Z,1.77
2022-08-07T23:34:19.795Z,1.77
2022-08-07T23:36:46.736Z,2.17
2022-08-07T23:39:27.963Z,2.35
2022-08-07T23:42:21.638Z,2.70
2022-08-07T23:44:55.378Z,1.73
2022-08-07T23:47:31.431Z,2.40
2022-08-07T23:50:23.358Z,2.33
2022-08-07T23:53:05.691Z,2.05
2022-08-07T23:55:56.013Z,2.25
2022-08-07T23:58:40.176Z,2.53
